IDPK1: Verdigris River, Independence

                                SHEF ID:       IDPK1     VERDIGRIS R AT INDEPENDENCE, KS
STATION TYPE:
Regulating: Stage = 30.00, Flow = 23488

PRECIP STAGE RIV-FLOW BAT-LOAD
in ft cfs volt
Ccp-Rev Ccp-Rev Ccp-Rev Ccp-Rev
(America/Chicago)
05/04 00:00 0.00 3.56 590 12.61
05/04 01:00 0.00 3.54 584 12.59
05/04 02:00 0.00 3.52 577 12.57
05/04 03:00 0.00 3.51 574 12.54
05/04 04:00 0.00 3.49 568 12.53
05/04 05:00 0.00 3.48 565 12.52
05/04 06:00 0.00 3.47 562 12.50
05/04 07:00 0.00 3.46 559 12.48
05/04 08:00 0.00 3.45 556 12.51
05/04 09:00 0.00 3.43 550 13.01
05/04 10:00 0.00 3.42 547 13.13
05/04 11:00 0.00 3.41 544 13.08
05/04 12:00 0.00 3.39 538 13.06
05/04 13:00 0.00 3.39 538 13.05
05/04 14:00 0.00 3.33 521 13.03
05/04 15:00 0.00 3.32 518 13.00
05/04 16:00 0.00 3.37 532 12.99
05/04 17:00 0.00 3.36 529 13.01
05/04 18:00 0.00 3.35 527 12.97
05/04 19:00 0.00 3.35 527 12.99
05/04 20:00 0.00 3.35 527 ----
05/04 21:00 0.00 3.34 524 12.67
05/04 22:00 0.00 3.34 524 12.64
05/04 23:00 0.00 3.31 515 12.61
Data processed at Tue 05May2026 04:05 GMT

NOTICE: If you are parsing this page

Please convert to using our Data API. Starting early 2026 we will be migrating to: https://water.usace.army.mil with modern pages rendered in JavaScript. When this migration completes you will no longer be able to scrape this page! CWMSDataAPI (CDA)

Timeseries IDs (TSIDs)

TSIDs used from left to right in the data table
INDP.Precip-Inc.Total.1Hour.1Hour.Ccp-Rev
INDP.Stage.Inst.1Hour.0.Ccp-Rev
INDP.Flow.Inst.1Hour.0.Ccp-Rev
INDP.Volt-Battery Load.Inst.1Hour.0.Ccp-Rev

                            

All information presented herein is the property of the government of the United States of America and may be revised or deleted at any time without prior notice. Dissemination of this information without the expressed written consent of the Public Affairs Office, Tulsa District U.S. Army Corps of Engineers is strictly prohibited. These data are gathered electronically and, as presented, have NOT undergone any form of quality control. These data are NOT guaranteed to be valid or correct.